Time;durP1;ratioP1;P1;durP2;ratioP2;P2;SDS_P1;SDS_P2;PMS_P1;PMS_P2;Temp;Humidity;BMP_temperature;BMP_pressure;BME280_temperature;BME280_humidity;BME280_pressure;Samples;Min_cycle;Max_cycle;Signal;HPM_P1;HPM_P2
2021/03/25 00:00:36;;;;;;;54.23;37.97;;;1.60;1.00;;;;;;4858648;28;20703;-82
2021/03/25 00:03:01;;;;;;;51.50;35.77;;;1.80;1.00;;;;;;4876253;28;20233;-76
2021/03/25 00:05:25;;;;;;;50.57;35.63;;;1.70;1.00;;;;;;4876461;28;20801;-76
2021/03/25 00:07:47;;;;;;;48.77;35.50;;;1.80;1.00;;;;;;4876114;28;20225;-88
2021/03/25 00:10:14;;;;;;;49.17;35.83;;;1.80;1.00;;;;;;4876015;28;20209;-78
2021/03/25 00:12:36;;;;;;;48.23;34.23;;;1.90;1.00;;;;;;4875244;28;20244;-77
2021/03/25 00:14:59;;;;;;;45.47;33.73;;;2.00;1.00;;;;;;4859350;28;20730;-75
2021/03/25 00:17:21;;;;;;;49.80;35.57;;;2.00;1.00;;;;;;4876111;28;20181;-75
2021/03/25 00:19:44;;;;;;;48.80;34.73;;;2.10;1.00;;;;;;4876555;28;20186;-75
2021/03/25 00:22:11;;;;;;;49.77;34.67;;;2.20;1.00;;;;;;4877064;28;20650;-80
2021/03/25 00:24:36;;;;;;;49.87;34.87;;;2.20;1.00;;;;;;4875305;28;20223;-83
2021/03/25 00:26:59;;;;;;;50.93;35.10;;;2.30;1.00;;;;;;4876127;28;20197;-76
2021/03/25 00:29:21;;;;;;;50.17;33.83;;;2.40;1.00;;;;;;4854431;28;20232;-75
2021/03/25 00:31:44;;;;;;;46.53;34.20;;;2.50;1.00;;;;;;4857614;28;20205;-75
2021/03/25 00:34:07;;;;;;;41.90;31.53;;;2.60;1.00;;;;;;4856985;28;20193;-80
2021/03/25 00:36:30;;;;;;;46.47;31.77;;;2.60;1.00;;;;;;4857329;28;20217;-76
2021/03/25 00:38:52;;;;;;;46.20;31.10;;;2.70;1.00;;;;;;4854766;28;20202;-77
2021/03/25 00:41:14;;;;;;;40.77;30.17;;;2.70;1.00;;;;;;4849900;28;20194;-76
2021/03/25 00:43:36;;;;;;;43.27;29.67;;;2.80;1.00;;;;;;4875141;28;20553;-76
2021/03/25 00:45:59;;;;;;;41.77;30.60;;;2.80;1.00;;;;;;4875017;28;20232;-75
2021/03/25 00:48:23;;;;;;;41.37;29.30;;;2.90;1.00;;;;;;4874699;28;20202;-75
2021/03/25 00:50:48;;;;;;;42.67;29.00;;;2.90;1.00;;;;;;4858700;28;20220;-75
2021/03/25 00:53:13;;;;;;;43.60;28.97;;;2.90;1.00;;;;;;4875840;28;20247;-75
2021/03/25 00:55:35;;;;;;;40.10;30.27;;;3.00;1.00;;;;;;4825685;28;20194;-75
2021/03/25 00:57:58;;;;;;;42.07;29.53;;;3.00;1.00;;;;;;4838672;28;20842;-75
2021/03/25 01:00:23;;;;;;;43.47;30.53;;;3.00;1.00;;;;;;4873487;28;20219;-75
2021/03/25 01:02:45;;;;;;;40.30;27.57;;;3.10;1.00;;;;;;4860567;28;20258;-76
2021/03/25 01:05:09;;;;;;;42.90;28.60;;;3.10;1.00;;;;;;4870624;28;20239;-75
2021/03/25 01:10:56;;;;;;;44.00;30.87;;;3.20;1.00;;;;;;4844804;28;20217;-76
2021/03/25 01:13:22;;;;;;;42.07;29.27;;;3.20;1.00;;;;;;4876493;28;20193;-78
2021/03/25 01:15:44;;;;;;;42.57;29.03;;;3.10;1.00;;;;;;4876462;28;20223;-78
2021/03/25 01:18:08;;;;;;;40.70;28.73;;;3.30;1.00;;;;;;4874638;28;20194;-76
2021/03/25 01:20:34;;;;;;;40.70;29.70;;;3.30;1.00;;;;;;4858334;28;20202;-74
2021/03/25 01:22:56;;;;;;;41.83;30.53;;;3.30;1.00;;;;;;4858202;28;20221;-75
2021/03/25 01:25:19;;;;;;;41.23;28.20;;;3.30;1.00;;;;;;4876582;28;20241;-80
2021/03/25 01:27:43;;;;;;;37.10;27.90;;;3.30;1.00;;;;;;4874324;28;20232;-75
2021/03/25 01:30:07;;;;;;;40.23;29.33;;;3.30;1.00;;;;;;4874299;28;20197;-79
2021/03/25 01:32:29;;;;;;;36.97;27.37;;;3.40;1.00;;;;;;4866358;28;20236;-77
2021/03/25 01:34:52;;;;;;;39.53;28.20;;;3.40;1.00;;;;;;4859744;28;20247;-93
2021/03/25 01:37:14;;;;;;;40.13;28.57;;;3.40;1.00;;;;;;4883726;28;20198;-93
2021/03/25 01:39:50;;;;;;;40.70;27.93;;;3.40;1.00;;;;;;4865073;28;20198;-93
2021/03/25 01:42:25;;;;;;;38.40;27.83;;;3.30;1.00;;;;;;4880417;28;20313;-89
2021/03/25 01:44:49;;;;;;;41.13;29.70;;;3.40;1.00;;;;;;4880265;28;20243;-93
2021/03/25 01:47:12;;;;;;;42.83;30.60;;;3.40;1.00;;;;;;4846428;28;20225;-79
2021/03/25 01:49:37;;;;;;;38.60;27.60;;;3.50;1.00;;;;;;4878899;28;20197;-76
2021/03/25 01:52:20;;;;;;;37.80;28.93;;;3.50;1.00;;;;;;4861217;28;20664;-75
2021/03/25 01:55:00;;;;;;;36.63;26.97;;;3.50;1.00;;;;;;4880368;28;20181;-87
2021/03/25 01:57:38;;;;;;;42.30;28.00;;;3.50;1.00;;;;;;4864278;28;20194;-85
2021/03/25 02:00:19;;;;;;;37.37;27.63;;;3.60;1.00;;;;;;4882219;28;20615;-83
2021/03/25 02:02:49;;;;;;;42.13;29.00;;;3.60;1.00;;;;;;4873341;28;20258;-92
2021/03/25 02:05:24;;;;;;;44.57;30.70;;;3.60;1.00;;;;;;4864806;28;20189;-91
2021/03/25 02:07:58;;;;;;;41.50;30.20;;;3.60;1.00;;;;;;4876175;28;20217;-79
2021/03/25 02:10:30;;;;;;;44.93;32.73;;;3.60;1.00;;;;;;4843382;28;20226;-77
2021/03/25 02:13:08;;;;;;;40.33;31.43;;;3.60;1.00;;;;;;4872653;28;20189;-90
2021/03/25 02:15:38;;;;;;;44.20;33.23;;;3.60;1.00;;;;;;4880539;28;20205;-90
2021/03/25 02:18:12;;;;;;;47.80;33.50;;;3.70;99.90;;;;;;4863478;28;20197;-90
2021/03/25 02:21:37;;;;;;;42.00;31.53;;;3.60;99.90;;;;;;4849944;28;20638;-75
2021/03/25 02:24:22;;;;;;;41.07;29.43;;;3.60;99.90;;;;;;4803910;28;20736;-83
2021/03/25 02:26:53;;;;;;;38.37;28.47;;;3.60;99.90;;;;;;4803859;28;20246;-89
2021/03/25 02:29:27;;;;;;;40.53;28.47;;;3.60;99.90;;;;;;4845394;28;20255;-77
2021/03/25 02:31:58;;;;;;;41.57;29.27;;;3.70;99.90;;;;;;4845506;28;20198;-76
2021/03/25 02:34:23;;;;;;;37.80;29.27;;;3.60;99.90;;;;;;4878192;28;20231;-75
2021/03/25 02:36:53;;;;;;;38.93;29.40;;;3.60;18.30;;;;;;4860002;28;20201;-77
2021/03/25 02:39:24;;;;;;;39.00;28.77;;;3.60;1.00;;;;;;4877897;28;20205;-91
2021/03/25 02:41:51;;;;;;;39.70;29.17;;;3.60;1.00;;;;;;4878129;28;20792;-75
2021/03/25 02:44:21;;;;;;;37.60;28.50;;;3.50;1.00;;;;;;4877352;28;20201;-80
2021/03/25 02:46:50;;;;;;;37.13;26.27;;;3.60;1.00;;;;;;4860533;28;20778;-76
2021/03/25 02:49:17;;;;;;;36.13;26.30;;;3.50;1.00;;;;;;4859848;28;20236;-78
2021/03/25 02:51:45;;;;;;;35.53;27.80;;;3.50;1.00;;;;;;4878020;28;20291;-79
2021/03/25 02:54:08;;;;;;;34.93;27.00;;;3.50;1.00;;;;;;4880173;28;20197;-94
2021/03/25 02:56:34;;;;;;;33.33;26.53;;;3.50;1.00;;;;;;4880305;28;20247;-94
2021/03/25 02:59:01;;;;;;;35.87;26.77;;;3.50;1.00;;;;;;4855757;28;20228;-94
2021/03/25 03:01:25;;;;;;;36.40;27.43;;;3.60;1.00;;;;;;4861228;28;20564;-93
2021/03/25 03:03:53;;;;;;;33.60;26.27;;;3.50;1.00;;;;;;4858884;28;20218;-92
2021/03/25 03:06:52;;;;;;;39.33;29.97;;;3.50;1.00;;;;;;4859267;28;20242;-91
2021/03/25 03:09:21;;;;;;;39.17;28.53;;;3.50;1.00;;;;;;4860223;28;20201;-84
2021/03/25 03:11:49;;;;;;;35.90;28.93;;;3.50;1.00;;;;;;4841836;28;20213;-91
2021/03/25 03:14:18;;;;;;;39.07;28.20;;;3.50;1.00;;;;;;4866795;28;20236;-92
2021/03/25 03:16:46;;;;;;;36.13;27.80;;;3.40;1.00;;;;;;4881930;28;20223;-91
2021/03/25 03:19:12;;;;;;;39.97;28.97;;;3.50;1.00;;;;;;4882503;28;20535;-92
2021/03/25 03:21:40;;;;;;;43.13;31.40;;;3.50;65.40;;;;;;4880517;28;20675;-94
2021/03/25 03:24:18;;;;;;;39.43;30.50;;;3.50;56.50;;;;;;4882081;28;20227;-95
2021/03/25 03:26:52;;;;;;;40.00;29.57;;;3.50;99.90;;;;;;4864346;28;20206;-90
2021/03/25 03:29:18;;;;;;;44.40;31.90;;;3.50;99.90;;;;;;4863656;28;20677;-84
2021/03/25 03:31:45;;;;;;;43.10;31.87;;;3.50;99.90;;;;;;4875059;28;20247;-93
2021/03/25 03:34:18;;;;;;;45.30;32.07;;;3.50;99.90;;;;;;4861885;28;20726;-93
2021/03/25 03:36:45;;;;;;;46.03;33.13;;;3.50;99.90;;;;;;4860859;28;20710;-88
2021/03/25 03:39:10;;;;;;;44.10;33.47;;;3.40;99.90;;;;;;4878569;28;20201;-90
2021/03/25 03:41:41;;;;;;;42.70;31.73;;;3.50;99.90;;;;;;4878159;28;20197;-82
2021/03/25 03:44:07;;;;;;;44.17;31.73;;;3.50;99.90;;;;;;4861254;28;20222;-91
2021/03/25 03:46:32;;;;;;;43.53;31.53;;;3.50;99.90;;;;;;4861514;28;20190;-88
2021/03/25 03:49:02;;;;;;;41.57;29.67;;;3.50;99.90;;;;;;4878838;28;20201;-86
2021/03/25 03:51:29;;;;;;;38.00;28.93;;;3.50;99.90;;;;;;4863052;28;20741;-91
2021/03/25 03:53:51;;;;;;;45.53;31.90;;;3.60;99.90;;;;;;4862361;28;20241;-84
2021/03/25 03:56:27;;;;;;;41.83;31.97;;;3.60;49.20;;;;;;4861363;28;20197;-88
2021/03/25 03:58:56;;;;;;;47.53;33.90;;;3.70;9.10;;;;;;4877436;28;20299;-91
2021/03/25 04:01:26;;;;;;;46.03;33.50;;;3.70;1.00;;;;;;4876182;28;20323;-84
2021/03/25 04:04:01;;;;;;;43.83;32.90;;;3.70;1.00;;;;;;4843979;28;20245;-88
2021/03/25 04:06:56;;;;;;;44.00;31.63;;;3.70;99.90;;;;;;4863941;28;20267;-81
2021/03/25 04:09:40;;;;;;;40.27;28.87;;;3.60;99.90;;;;;;4842163;28;20653;-90
2021/03/25 04:12:17;;;;;;;38.60;28.17;;;3.60;1.00;;;;;;4838522;28;20189;-89
2021/03/25 04:14:48;;;;;;;34.27;26.33;;;3.50;1.00;;;;;;4859640;28;20670;-85
2021/03/25 04:17:28;;;;;;;35.83;27.07;;;3.60;1.00;;;;;;4860218;28;20181;-91
2021/03/25 04:19:54;;;;;;;36.13;27.37;;;3.70;1.00;;;;;;4876918;28;20216;-89
2021/03/25 04:22:31;;;;;;;41.23;29.57;;;3.70;1.00;;;;;;4876857;28;20209;-91
2021/03/25 04:25:01;;;;;;;39.60;29.30;;;3.70;1.00;;;;;;4878556;28;20223;-86
2021/03/25 04:27:29;;;;;;;38.27;30.13;;;3.70;1.00;;;;;;4876674;28;20561;-86
2021/03/25 04:29:58;;;;;;;44.97;31.50;;;3.70;1.00;;;;;;4844583;28;20217;-93
2021/03/25 04:32:20;;;;;;;46.90;32.33;;;3.70;99.90;;;;;;4860559;28;20275;-93
2021/03/25 04:34:42;;;;;;;42.00;31.33;;;3.70;99.90;;;;;;4879240;28;20239;-93
2021/03/25 04:37:07;;;;;;;45.77;34.53;;;3.60;99.90;;;;;;4877582;28;20193;-90
2021/03/25 04:39:30;;;;;;;43.13;33.57;;;3.70;99.90;;;;;;4880309;28;20189;-88
2021/03/25 04:41:55;;;;;;;44.87;33.50;;;3.70;99.90;;;;;;4864043;28;20198;-91
2021/03/25 04:44:33;;;;;;;46.53;34.03;;;3.70;1.00;;;;;;4879312;28;20275;-85
2021/03/25 04:47:12;;;;;;;44.90;33.77;;;3.80;1.00;;;;;;4862288;28;20204;-90
2021/03/25 04:49:37;;;;;;;47.63;34.57;;;3.70;1.00;;;;;;4879390;28;20181;-89
2021/03/25 04:52:02;;;;;;;46.90;35.27;;;3.60;1.00;;;;;;4879076;28;20205;-92
2021/03/25 04:54:29;;;;;;;44.37;35.10;;;3.70;1.00;;;;;;4879483;28;20686;-93
2021/03/25 04:56:52;;;;;;;46.80;34.67;;;3.60;99.90;;;;;;4878405;28;20389;-91
2021/03/25 04:59:16;;;;;;;45.63;35.50;;;3.60;1.00;;;;;;4833555;28;20763;-92
2021/03/25 05:01:41;;;;;;;46.57;34.60;;;3.70;1.00;;;;;;4876132;28;20193;-90
2021/03/25 05:04:06;;;;;;;48.70;36.47;;;3.70;1.00;;;;;;4857929;28;20239;-76
2021/03/25 05:06:32;;;;;;;53.43;38.57;;;3.70;55.00;;;;;;4858562;28;20273;-85
2021/03/25 05:08:56;;;;;;;45.77;36.50;;;3.70;99.90;;;;;;4851092;28;20642;-93
2021/03/25 05:11:22;;;;;;;47.87;34.87;;;3.80;99.90;;;;;;4876686;28;20214;-92
2021/03/25 05:13:46;;;;;;;49.87;37.20;;;3.80;99.90;;;;;;4874250;28;20193;-76
2021/03/25 05:16:22;;;;;;;45.80;35.43;;;3.80;24.20;;;;;;4876100;28;20287;-76
2021/03/25 05:18:54;;;;;;;54.70;38.27;;;3.90;1.00;;;;;;4842232;28;20194;-93
2021/03/25 05:21:25;;;;;;;56.50;38.57;;;3.90;1.00;;;;;;4864212;28;20224;-94
2021/03/25 05:23:51;;;;;;;61.20;41.80;;;3.90;1.00;;;;;;4878411;28;20610;-93
2021/03/25 05:26:21;;;;;;;56.87;38.70;;;4.00;1.00;;;;;;4878861;28;20228;-93
2021/03/25 05:28:48;;;;;;;47.37;34.93;;;4.00;1.00;;;;;;4861724;28;20243;-93
2021/03/25 05:31:14;;;;;;;51.60;38.40;;;4.10;1.00;;;;;;4878615;28;20219;-92
2021/03/25 05:33:37;;;;;;;44.53;34.37;;;4.10;1.00;;;;;;4879978;28;20190;-94
2021/03/25 05:36:02;;;;;;;45.27;34.67;;;4.10;99.90;;;;;;4878695;28;20590;-92
2021/03/25 05:38:25;;;;;;;42.97;33.80;;;4.20;1.00;;;;;;4860501;28;20213;-93
2021/03/25 05:40:51;;;;;;;42.37;34.03;;;4.30;1.00;;;;;;4844253;28;20205;-91
2021/03/25 05:43:51;;;;;;;44.30;33.17;;;4.30;1.00;;;;;;4876626;28;20214;-94
2021/03/25 05:46:18;;;;;;;47.23;35.43;;;4.40;1.00;;;;;;4845728;28;20240;-92
2021/03/25 05:48:52;;;;;;;43.77;34.17;;;4.50;1.00;;;;;;4876519;28;20638;-92
2021/03/25 05:51:25;;;;;;;44.17;34.27;;;4.50;99.90;;;;;;4877126;28;20189;-92
2021/03/25 05:54:02;;;;;;;45.33;35.07;;;4.60;99.90;;;;;;4878496;28;20186;-93
2021/03/25 05:56:34;;;;;;;46.90;36.30;;;4.60;21.80;;;;;;4860226;28;20198;-93
2021/03/25 05:58:59;;;;;;;48.50;36.83;;;4.60;99.90;;;;;;4876597;28;20190;-93
2021/03/25 06:02:00;;;;;;;47.43;36.43;;;4.70;1.00;;;;;;4875240;28;20197;-92
2021/03/25 06:04:28;;;;;;;51.00;38.77;;;4.80;1.00;;;;;;4845820;28;20287;-92
2021/03/25 06:07:20;;;;;;;47.07;37.30;;;4.90;1.00;;;;;;4859155;28;20722;-75
2021/03/25 06:09:54;;;;;;;51.63;39.13;;;4.90;1.00;;;;;;4853138;28;20630;-79
2021/03/25 06:12:29;;;;;;;49.50;38.30;;;4.90;1.00;;;;;;4859500;28;20232;-76
2021/03/25 06:15:05;;;;;;;47.27;36.13;;;5.00;1.00;;;;;;4874934;28;20189;-76
2021/03/25 06:17:39;;;;;;;47.37;35.93;;;5.10;1.00;;;;;;4841455;28;20189;-75
2021/03/25 06:20:19;;;;;;;47.60;35.73;;;5.20;1.00;;;;;;4873425;28;20193;-77
2021/03/25 06:22:48;;;;;;;47.10;35.60;;;5.30;99.90;;;;;;4857112;28;20198;-76
2021/03/25 06:25:48;;;;;;;41.90;33.77;;;5.50;1.00;;;;;;4877604;28;20239;-75
2021/03/25 06:28:17;;;;;;;40.60;33.13;;;5.40;1.00;;;;;;4875614;28;20209;-88
2021/03/25 06:30:44;;;;;;;41.30;32.73;;;5.50;1.00;;;;;;4861258;28;20202;-78
2021/03/25 06:33:22;;;;;;;39.00;31.77;;;5.60;99.90;;;;;;4844326;28;20195;-76
2021/03/25 06:35:47;;;;;;;41.70;33.33;;;5.70;99.90;;;;;;4861796;28;20720;-90
2021/03/25 06:38:16;;;;;;;40.23;30.87;;;5.80;34.20;;;;;;4878533;28;20736;-75
2021/03/25 06:40:45;;;;;;;39.07;29.00;;;5.90;1.00;;;;;;4877543;28;20254;-75
2021/03/25 06:43:14;;;;;;;37.60;30.90;;;6.00;1.00;;;;;;4878272;28;20740;-75
2021/03/25 06:45:40;;;;;;;33.47;27.63;;;6.10;1.00;;;;;;4879571;28;20596;-79
2021/03/25 06:48:05;;;;;;;36.03;28.40;;;6.30;1.00;;;;;;4878579;28;20242;-78
2021/03/25 06:50:32;;;;;;;32.10;26.97;;;6.30;99.90;;;;;;4878240;28;20655;-75
2021/03/25 06:53:00;;;;;;;33.90;26.83;;;6.30;99.90;;;;;;4849862;28;20665;-94
2021/03/25 06:55:26;;;;;;;35.43;27.20;;;6.40;99.90;;;;;;4872306;28;20190;-77
2021/03/25 06:57:56;;;;;;;30.27;25.87;;;6.50;1.00;;;;;;4876628;28;20579;-86
2021/03/25 07:00:21;;;;;;;32.07;26.40;;;6.60;1.00;;;;;;4866116;28;20231;-75
2021/03/25 07:02:46;;;;;;;29.53;25.10;;;6.60;1.00;;;;;;4858640;28;20281;-76
2021/03/25 07:05:12;;;;;;;29.40;24.83;;;6.70;1.00;;;;;;4876696;28;20201;-89
2021/03/25 07:07:36;;;;;;;30.13;23.70;;;6.80;1.00;;;;;;4861821;28;20255;-83
2021/03/25 07:10:00;;;;;;;31.80;24.90;;;6.90;99.90;;;;;;4877620;28;20221;-89
2021/03/25 07:12:25;;;;;;;25.93;21.93;;;6.80;99.90;;;;;;4878518;28;20185;-78
2021/03/25 07:14:50;;;;;;;28.03;24.47;;;7.00;99.90;;;;;;4860004;28;20225;-76
2021/03/25 07:17:14;;;;;;;27.70;24.03;;;7.10;99.90;;;;;;4878250;28;20197;-81
2021/03/25 07:19:38;;;;;;;26.23;22.50;;;7.10;99.90;;;;;;4843271;28;20194;-77
2021/03/25 07:22:16;;;;;;;25.67;22.23;;;7.10;99.90;;;;;;4836736;28;20198;-76
2021/03/25 07:24:38;;;;;;;27.40;22.73;;;7.10;99.90;;;;;;4867356;28;20232;-75
2021/03/25 07:27:07;;;;;;;24.23;21.27;;;7.20;99.90;;;;;;4843839;28;20227;-76
2021/03/25 07:29:33;;;;;;;27.43;22.63;;;7.30;99.90;;;;;;4859585;28;20308;-76
2021/03/25 07:32:13;;;;;;;23.70;20.50;;;7.40;99.90;;;;;;4857674;28;20209;-75
2021/03/25 07:34:39;;;;;;;25.50;21.97;;;7.50;99.90;;;;;;4873720;28;20255;-75
2021/03/25 07:37:04;;;;;;;24.13;21.20;;;7.60;99.90;;;;;;4864914;28;20202;-89
2021/03/25 07:39:28;;;;;;;28.17;21.87;;;7.80;44.40;;;;;;4865518;28;20243;-84
2021/03/25 07:41:53;;;;;;;23.43;20.57;;;7.90;25.90;;;;;;4854732;28;20260;-78
2021/03/25 07:44:34;;;;;;;23.50;20.90;;;8.00;1.00;;;;;;4877108;28;20267;-75
2021/03/25 07:46:59;;;;;;;25.47;22.77;;;8.00;1.00;;;;;;4874869;28;20194;-75
2021/03/25 07:49:23;;;;;;;26.67;21.90;;;8.10;1.00;;;;;;4859119;28;20228;-75
2021/03/25 07:51:48;;;;;;;25.93;22.17;;;8.20;1.00;;;;;;4876301;28;20190;-89
2021/03/25 07:54:15;;;;;;;25.07;21.10;;;8.20;1.00;;;;;;4876012;28;20181;-77
2021/03/25 07:56:48;;;;;;;26.50;21.10;;;8.30;1.00;;;;;;4858890;28;20198;-82
2021/03/25 07:59:28;;;;;;;22.97;19.63;;;8.40;1.00;;;;;;4876450;28;20185;-82
2021/03/25 08:01:50;;;;;;;23.53;19.97;;;8.40;1.00;;;;;;4857360;28;20267;-81
2021/03/25 08:04:25;;;;;;;23.97;19.53;;;8.50;1.00;;;;;;4872433;28;20278;-78
2021/03/25 08:07:00;;;;;;;21.47;18.33;;;8.60;1.00;;;;;;4851144;28;20212;-78
2021/03/25 08:09:22;;;;;;;19.33;17.27;;;8.70;1.00;;;;;;4858643;28;20205;-79
2021/03/25 08:11:52;;;;;;;21.13;17.50;;;8.70;1.00;;;;;;4874697;28;20217;-77
2021/03/25 08:14:19;;;;;;;20.50;17.70;;;8.80;1.00;;;;;;4874464;28;20633;-76
2021/03/25 08:16:45;;;;;;;17.00;15.23;;;8.90;1.00;;;;;;4873176;28;20251;-83
2021/03/25 08:19:36;;;;;;;16.83;14.83;;;8.90;1.00;;;;;;4873487;28;20185;-86
2021/03/25 08:22:26;;;;;;;18.27;16.33;;;8.90;1.00;;;;;;4874071;28;20255;-80
2021/03/25 08:25:19;;;;;;;17.03;15.00;;;8.90;1.00;;;;;;4872071;28;20800;-83
2021/03/25 08:27:50;;;;;;;15.20;13.67;;;8.90;1.00;;;;;;4845337;28;20205;-84
2021/03/25 08:30:39;;;;;;;19.07;15.67;;;9.00;1.00;;;;;;4875503;28;20201;-81
2021/03/25 08:33:15;;;;;;;15.37;13.23;;;9.00;1.00;;;;;;4856326;28;20263;-83
2021/03/25 08:35:49;;;;;;;14.70;13.20;;;9.00;1.00;;;;;;4885372;28;20710;-78
2021/03/25 08:38:33;;;;;;;15.03;13.43;;;9.00;1.00;;;;;;4873057;28;20201;-81
2021/03/25 08:41:03;;;;;;;17.13;15.30;;;9.00;1.00;;;;;;4875215;28;20311;-81
2021/03/25 08:43:39;;;;;;;19.33;16.23;;;9.00;1.00;;;;;;4859419;28;20222;-82
2021/03/25 08:46:11;;;;;;;23.70;18.53;;;9.10;1.00;;;;;;4863972;28;20197;-77
2021/03/25 08:48:39;;;;;;;17.80;15.93;;;9.20;1.00;;;;;;4847808;28;20209;-80
2021/03/25 08:51:09;;;;;;;19.87;16.60;;;9.20;1.00;;;;;;4863879;28;20239;-79
2021/03/25 08:53:43;;;;;;;17.27;14.77;;;9.30;1.00;;;;;;4868301;28;20655;-77
2021/03/25 08:56:16;;;;;;;16.60;14.97;;;9.40;1.00;;;;;;4872571;28;20613;-74
2021/03/25 08:58:40;;;;;;;17.20;15.40;;;9.40;1.00;;;;;;4863345;28;20190;-78
2021/03/25 09:01:06;;;;;;;17.87;15.87;;;9.50;1.00;;;;;;4871670;28;20663;-80
2021/03/25 09:03:33;;;;;;;16.60;14.93;;;9.70;1.00;;;;;;4864147;28;20409;-75
2021/03/25 09:06:05;;;;;;;19.67;17.47;;;9.80;1.00;;;;;;4845619;28;20230;-75
2021/03/25 09:08:31;;;;;;;14.20;12.67;;;9.90;1.00;;;;;;4852273;28;20237;-77
2021/03/25 09:10:56;;;;;;;14.73;13.03;;;10.10;1.00;;;;;;4853403;28;20255;-78
2021/03/25 09:13:21;;;;;;;12.60;11.40;;;10.20;1.00;;;;;;4867954;28;20186;-76
2021/03/25 09:15:45;;;;;;;14.20;11.27;;;10.20;1.00;;;;;;4873862;28;20244;-78
2021/03/25 09:18:09;;;;;;;13.57;11.93;;;10.20;1.00;;;;;;4872916;28;20185;-82
2021/03/25 09:20:34;;;;;;;16.80;14.90;;;10.40;1.00;;;;;;4865589;28;20205;-81
2021/03/25 09:23:00;;;;;;;16.13;14.47;;;10.50;1.00;;;;;;4853944;28;20186;-85
2021/03/25 09:25:39;;;;;;;16.73;14.93;;;10.70;1.00;;;;;;4874313;28;20216;-80
2021/03/25 09:28:03;;;;;;;11.97;10.80;;;10.90;1.00;;;;;;4866494;28;20216;-87
2021/03/25 09:30:36;;;;;;;9.53;8.63;;;11.20;1.00;;;;;;4855238;28;20198;-85
2021/03/25 09:33:31;;;;;;;10.80;9.37;;;11.60;1.00;;;;;;4849350;28;20193;-86
2021/03/25 09:35:54;;;;;;;9.77;8.80;;;11.90;1.00;;;;;;4872324;28;20185;-79
2021/03/25 09:38:31;;;;;;;8.63;7.87;;;12.10;1.00;;;;;;4871256;28;20193;-78
2021/03/25 09:40:54;;;;;;;7.87;6.80;;;12.50;1.00;;;;;;4854349;28;20877;-83
2021/03/25 09:43:42;;;;;;;5.73;5.17;;;12.70;1.00;;;;;;4872190;28;20201;-81
2021/03/25 09:46:29;;;;;;;6.20;5.70;;;12.80;1.00;;;;;;4869678;28;20189;-83
2021/03/25 09:48:53;;;;;;;7.63;6.93;;;12.90;99.90;;;;;;4872665;28;20189;-84
2021/03/25 09:51:20;;;;;;;6.50;5.90;;;13.10;99.90;;;;;;4871952;28;20648;-86
2021/03/25 09:53:48;;;;;;;5.23;4.83;;;13.30;99.90;;;;;;4868736;28;20267;-78
2021/03/25 09:56:31;;;;;;;5.40;4.40;;;13.50;99.90;;;;;;4872888;28;20197;-75
2021/03/25 09:58:55;;;;;;;5.20;4.80;;;13.60;99.90;;;;;;4839970;28;20574;-77
2021/03/25 10:01:40;;;;;;;4.43;4.07;;;13.40;99.90;;;;;;4871676;28;20338;-76
2021/03/25 10:04:23;;;;;;;4.60;4.23;;;13.50;99.90;;;;;;4850255;28;20630;-79
2021/03/25 10:06:56;;;;;;;5.17;4.73;;;13.60;99.90;;;;;;4864464;28;20209;-75
2021/03/25 10:09:52;;;;;;;4.20;3.90;;;13.70;99.90;;;;;;4875149;28;20177;-79
2021/03/25 10:12:36;;;;;;;4.40;4.00;;;13.90;99.90;;;;;;4872887;28;20822;-78
2021/03/25 10:14:58;;;;;;;4.20;3.90;;;14.20;99.90;;;;;;4868197;28;20231;-76
2021/03/25 10:17:43;;;;;;;3.67;3.40;;;14.40;99.90;;;;;;4875179;28;20193;-78
2021/03/25 10:20:05;;;;;;;3.60;3.30;;;14.70;99.90;;;;;;4876049;28;20193;-75
2021/03/25 10:22:27;;;;;;;2.73;2.57;;;15.10;99.90;;;;;;4865177;28;20216;-76
2021/03/25 10:24:56;;;;;;;2.20;2.10;;;15.30;99.90;;;;;;4875494;28;20213;-78
2021/03/25 10:27:38;;;;;;;2.23;2.10;;;15.60;99.90;;;;;;4874767;28;20209;-81
2021/03/25 10:30:07;;;;;;;2.10;2.00;;;16.10;99.90;;;;;;4859895;28;20259;-78
2021/03/25 10:32:34;;;;;;;1.77;1.67;;;16.50;99.90;;;;;;4867281;28;20201;-75
2021/03/25 10:35:00;;;;;;;1.60;1.50;;;16.80;99.90;;;;;;4856277;28;20679;-80
2021/03/25 10:37:35;;;;;;;1.20;1.17;;;16.90;99.90;;;;;;4875371;28;20267;-76
2021/03/25 10:40:06;;;;;;;1.13;1.13;;;17.10;99.90;;;;;;4872007;28;20262;-77
2021/03/25 10:42:32;;;;;;;1.00;1.00;;;17.40;99.90;;;;;;4870378;28;20181;-83
2021/03/25 10:44:56;;;;;;;1.40;0.93;;;17.80;99.90;;;;;;4875453;28;20229;-84
2021/03/25 10:47:19;;;;;;;0.73;0.73;;;18.10;99.90;;;;;;4857932;28;20223;-84
2021/03/25 10:49:44;;;;;;;0.57;0.57;;;18.20;99.90;;;;;;4869947;28;20592;-84
2021/03/25 10:52:17;;;;;;;0.80;0.80;;;18.00;99.90;;;;;;4867772;28;20251;-83
2021/03/25 10:54:39;;;;;;;0.60;0.60;;;17.80;99.90;;;;;;4858143;28;20598;-86
2021/03/25 10:57:15;;;;;;;0.57;0.57;;;17.80;99.90;;;;;;4858961;28;20647;-75
2021/03/25 10:59:44;;;;;;;0.50;0.50;;;18.40;99.90;;;;;;4874676;28;20227;-76
2021/03/25 11:02:19;;;;;;;0.40;0.40;;;19.90;99.90;;;;;;4874098;28;20643;-78
2021/03/25 11:04:41;;;;;;;0.20;0.20;;;21.40;99.90;;;;;;4874902;28;20288;-77
2021/03/25 11:07:11;;;;;;;0.20;0.20;;;23.80;99.90;;;;;;4873941;28;20798;-78
2021/03/25 11:09:33;;;;;;;0.30;0.30;;;26.60;99.90;;;;;;4873816;28;20231;-79
2021/03/25 11:12:00;;;;;;;0.30;0.30;;;29.00;99.90;;;;;;4874094;28;20196;-77
2021/03/25 11:14:30;;;;;;;0.20;0.20;;;31.40;99.90;;;;;;4877050;28;20193;-77
2021/03/25 11:16:55;;;;;;;0.20;0.20;;;33.20;99.90;;;;;;4873424;28;20256;-75
2021/03/25 11:19:19;;;;;;;0.30;0.30;;;34.90;99.90;;;;;;4872919;28;20575;-73
2021/03/25 11:21:43;;;;;;;0.20;0.20;;;35.90;99.90;;;;;;4875390;28;20729;-80
2021/03/25 11:24:14;;;;;;;0.20;0.20;;;36.30;99.90;;;;;;4874747;28;20714;-80
2021/03/25 11:26:37;;;;;;;0.20;0.20;;;37.00;99.90;;;;;;4874876;28;20205;-79
2021/03/25 11:29:01;;;;;;;0.30;0.30;;;38.00;99.90;;;;;;4873680;28;20197;-80
2021/03/25 11:31:27;;;;;;;0.20;0.20;;;38.70;99.90;;;;;;4876270;28;20195;-83
2021/03/25 11:33:52;;;;;;;0.20;0.20;;;38.80;99.90;;;;;;4858356;28;20228;-83
2021/03/25 11:36:15;;;;;;;0.20;0.20;;;37.90;99.90;;;;;;4859183;28;20186;-82
2021/03/25 11:38:39;;;;;;;0.30;0.30;;;36.30;99.90;;;;;;4858540;28;20198;-82
2021/03/25 11:41:04;;;;;;;0.20;0.20;;;34.80;99.90;;;;;;4870829;28;20201;-78
2021/03/25 11:43:43;;;;;;;0.28;0.28;;;34.00;99.90;;;;;;4858340;28;20748;-79
2021/03/25 11:46:05;;;;;;;0.20;0.20;;;33.50;99.90;;;;;;4872518;28;20564;-73
2021/03/25 11:48:31;;;;;;;0.20;0.20;;;34.00;99.90;;;;;;4868001;28;20197;-79
2021/03/25 11:50:55;;;;;;;0.20;0.20;;;35.10;99.90;;;;;;4856927;28;20190;-79
2021/03/25 11:53:42;;;;;;;0.25;0.25;;;36.60;99.90;;;;;;4873809;28;20618;-76
2021/03/25 11:56:07;;;;;;;0.20;0.20;;;38.10;99.90;;;;;;4861215;28;20689;-80
2021/03/25 11:58:29;;;;;;;0.20;0.20;;;38.60;99.90;;;;;;4857366;28;20190;-74
2021/03/25 12:01:07;;;;;;;0.20;0.20;;;39.30;99.90;;;;;;4871650;28;20231;-75
2021/03/25 12:03:35;;;;;;;0.20;0.20;;;40.50;99.90;;;;;;4872586;28;20290;-79
2021/03/25 12:05:57;;;;;;;0.10;0.10;;;41.50;99.90;;;;;;4852882;28;20205;-79
2021/03/25 12:08:28;;;;;;;0.20;0.20;;;42.60;99.90;;;;;;4873007;28;20185;-79
2021/03/25 12:10:59;;;;;;;0.20;0.20;;;42.80;99.90;;;;;;4853090;28;20719;-80
2021/03/25 12:13:21;;;;;;;0.30;0.30;;;43.70;99.90;;;;;;4874206;28;20189;-74
2021/03/25 12:15:43;;;;;;;0.20;0.20;;;43.90;99.90;;;;;;4875686;28;20201;-77
2021/03/25 12:18:17;;;;;;;0.30;0.30;;;43.50;99.90;;;;;;4854910;28;20193;-76
2021/03/25 12:20:41;;;;;;;0.20;0.20;;;43.40;99.90;;;;;;4865850;28;20201;-75
2021/03/25 12:23:07;;;;;;;0.30;0.30;;;43.10;99.90;;;;;;4872029;28;20189;-79
2021/03/25 12:25:30;;;;;;;0.22;0.22;;;43.40;99.90;;;;;;4874303;28;20213;-79
2021/03/25 12:27:52;;;;;;;0.20;0.20;;;44.20;99.90;;;;;;4874591;28;20186;-80
2021/03/25 12:30:15;;;;;;;0.20;0.20;;;44.40;99.90;;;;;;4837109;28;20190;-79
2021/03/25 12:32:38;;;;;;;0.30;0.30;;;45.00;99.90;;;;;;4873695;28;20185;-77
2021/03/25 12:35:02;;;;;;;0.20;0.20;;;45.00;99.90;;;;;;4852796;28;20221;-81
2021/03/25 12:37:27;;;;;;;0.30;0.30;;;44.70;99.90;;;;;;4872952;28;20193;-80
2021/03/25 12:39:51;;;;;;;0.20;0.20;;;44.80;99.90;;;;;;4873146;28;20243;-80
2021/03/25 12:42:14;;;;;;;0.30;0.30;;;44.70;99.90;;;;;;4875500;28;20185;-82
2021/03/25 12:44:36;;;;;;;0.20;0.20;;;44.40;99.90;;;;;;4873614;28;20537;-78
2021/03/25 12:47:00;;;;;;;0.20;0.20;;;44.00;99.90;;;;;;4873410;28;20227;-82
2021/03/25 12:49:22;;;;;;;0.20;0.20;;;44.50;99.90;;;;;;4855726;28;20667;-82
2021/03/25 12:51:44;;;;;;;0.30;0.30;;;44.90;99.90;;;;;;4875040;28;20193;-84
2021/03/25 12:54:08;;;;;;;0.30;0.30;;;45.20;99.90;;;;;;4859567;28;20651;-83
2021/03/25 12:56:33;;;;;;;0.30;0.30;;;45.60;99.90;;;;;;4872446;28;20201;-85
2021/03/25 12:58:56;;;;;;;0.20;0.20;;;45.90;99.90;;;;;;4856095;28;20243;-78